Station: Cape Willoughby

  Atmospheric Gas Attenuation - ITU Rec 676-11   --------------- db/100km ---------------
Date Time Temp RH % AH g/m3 Dew Point Wind Direction Speed kph Gust kph Barometer mB Rainfall Since 9am 24GHz 47GHz 76GHz 122GHz 134GHz 241GHz
17 02:20 11.7 87 9.1 9.6 20 22 1013.1 0 20.8 27.3 42.9 112.8 108.0 371.7
17 02:10 11.9 87 9.22 9.8 17 19 1013.1 0 21.0 27.5 43.3 113.9 109.3 376.5
17 02:00 11.8 87 9.16 9.7 17 20 1021.8 0 20.9 27.8 43.6 114.3 109.4 376.7
17 01:50 11.7 87 9.1 9.6 17 20 1013.1 0 20.8 27.3 42.9 112.8 108.0 371.7
17 01:40 11.8 87 9.16 9.7 15 17 1013.1 0 20.9 27.4 43.1 113.4 108.6 374.1
17 01:30 12 87 9.27 9.9 17 20 1021.8 0 21.1 27.9 43.9 115.3 110.7 381.1
17 01:20 12.1 86 9.22 9.8 19 20 1013.1 0 21.0 27.4 43.2 113.6 109.1 375.5
17 01:10 12.2 87 9.39 10.1 19 20 1013.1 0 21.4 27.7 43.9 115.4 111.3 383.3
17 01:00 12.1 86 9.22 9.8 17 20 1021.8 0 21.0 27.8 43.6 114.6 109.8 378.2
17 00:50 12 86 9.17 9.7 17 19 1013.1 0 20.9 27.4 43.1 113.2 108.5 373.6
17 00:40 12 85 9.06 9.5 19 19 1013.1 0 20.7 27.2 42.6 112.0 107.0 368.3
17 00:30 12.1 85 9.12 9.7 17 20 1022.1 0 20.8 27.6 43.2 113.5 108.5 373.4
17 00:20 12.1 83 8.9 9.4 17 20 1013.1 0 20.3 26.9 41.9 110.0 104.7 360.2
17 00:10 12.4 83 9.07 9.7 19 19 1013.1 0 20.7 27.1 42.4 111.5 106.6 366.9
17 00:00 12.3 82 8.9 9.3 17 22 1022.3 0 20.3 27.2 42.2 110.8 105.2 361.9
16 23:50 12.3 81 8.8 9.1 17 20 1013.1 0 20.1 26.7 41.4 108.6 103.0 354.5
16 23:40 12.3 82 8.9 9.3 15 17 1013.1 0 20.3 26.8 41.8 109.7 104.4 359.2
16 23:30 12.2 82 8.85 9.2 15 19 1022.7 0 20.2 27.1 42.1 110.4 104.7 360.1
16 23:20 12.3 81 8.8 9.1 15 17 1013.1 0 20.1 26.7 41.4 108.6 103.0 354.5
16 23:10 12.3 80 8.69 8.9 15 17 1013.1 0 19.9 26.5 40.9 107.4 101.5 349.2
16 23:00 12.2 80 8.63 8.9 13 17 1023 0 19.7 26.8 41.2 108.0 101.7 349.6
16 22:50 12.2 78 8.42 8.6 13 15 1013.1 0 19.3 26.1 39.9 104.6 98.0 337.0
16 22:40 12.2 78 8.42 8.6 11 13 1013.1 0 19.3 26.1 39.9 104.6 98.0 337.0
16 22:30 12.3 79 8.58 8.8 11 15 1023.2 0 19.6 26.7 40.9 107.3 100.9 346.9
16 22:20 12.3 79 8.58 8.7 9 11 1013.1 0 19.6 26.3 40.5 106.2 100.0 344.0
16 22:10 12.3 77 8.36 8.5 15 17 1013.1 0 19.1 25.9 39.6 103.8 97.1 333.7
16 22:00 12.3 78 8.47 8.6 13 17 1023 0 19.4 26.5 40.5 106.1 99.4 341.6
16 21:50 12.3 77 8.36 8.5 15 17 1013.1 0 19.1 25.9 39.6 103.8 97.1 333.7
16 21:40 12.2 77 8.31 8.3 13 13 1013.1 0 19.0 25.9 39.4 103.4 96.5 331.8
16 21:30 12.2 77 8.31 8.3 7 11 1023.5 0 19.0 26.3 39.9 104.5 97.4 334.6
16 21:20 12.2 77 8.31 8.3 9 11 1013.1 0 19.0 25.9 39.4 103.4 96.5 331.8
16 21:10 12.2 76 8.2 8.1 11 11 1013.1 0 18.8 25.7 39.0 102.2 95.1 326.7
16 21:00 12.2 75 8.09 7.9 11 15 1023.6 0 18.6 25.9 39.0 102.1 94.4 324.3
16 20:50 12.2 76 8.2 8.1 9 11 1013.1 0 18.8 25.7 39.0 102.2 95.1 326.7
16 20:40 12.3 76 8.25 8.2 9 11 1013.1 0 18.9 25.8 39.1 102.6 95.6 328.6
16 20:30 12.3 76 8.25 8.2 13 17 1023.3 0 18.9 26.1 39.6 103.7 96.4 331.3
16 20:20 12.2 75 8.09 7.9 11 13 1013.1 0 18.6 25.5 38.5 101.0 93.6 321.6
16 20:10 12.1 75 8.04 7.8 9 9 1013.1 0 18.5 25.5 38.4 100.6 93.1 319.6
16 20:00 12.1 75 8.04 7.8 7 9 1023.6 0 18.5 25.9 38.8 101.7 93.9 322.4
16 19:50 12.1 75 8.04 7.8 9 9 1013.1 0 18.5 25.5 38.4 100.6 93.1 319.6
16 19:40 12.2 75 8.09 7.9 9 11 1013.1 0 18.6 25.5 38.5 101.0 93.6 321.6
16 19:30 12.2 75 8.09 7.9 9 11 1023.6 0 18.6 25.9 39.0 102.1 94.4 324.3
16 19:20 12.3 75 8.14 8 9 9 1013.1 0 18.7 25.6 38.7 101.5 94.2 323.5
16 19:10 12.3 75 8.14 8 7 9 1013.1 0 18.7 25.6 38.7 101.5 94.2 323.5
16 19:00 12.2 75 8.09 7.9 7 11 1023.7 0 18.6 25.9 39.0 102.1 94.5 324.4
16 18:50 12.3 75 8.14 8 7 11 1013.1 0 18.7 25.6 38.7 101.5 94.2 323.5
16 18:40 12.2 74 7.99 7.7 7 7 1013.1 0 18.4 25.4 38.1 100.0 92.3 316.9
16 18:30 12.3 75 8.14 8 7 11 1023.6 0 18.7 26.0 39.1 102.5 95.0 326.3
16 18:20 12.2 74 7.99 7.7 7 9 1013.1 0 18.4 25.4 38.1 100.0 92.3 316.9
16 18:10 12.2 74 7.99 7.7 7 7 1013.1 0 18.4 25.4 38.1 100.0 92.3 316.9
16 18:00 12.2 74 7.99 7.7 9 11 1023.4 0 18.4 25.7 38.6 101.0 93.1 319.6
16 17:50 12.2 73 7.88 7.5 11 11 1013.1 0 18.1 25.2 37.7 98.8 90.8 311.9
16 17:40 12.3 74 8.04 7.8 9 11 1013.1 0 18.5 25.4 38.3 100.4 92.8 318.8
16 17:30 12.2 73 7.88 7.5 7 9 1023.5 0 18.1 25.6 38.1 99.9 91.7 314.5
16 17:20 12.4 72 7.87 7.5 7 7 1013.1 0 18.1 25.1 37.6 98.4 90.5 310.6
16 17:10 12.5 71 7.81 7.4 6 6 1013.1 0 18.0 25.0 37.3 97.7 89.6 307.5
16 17:00 12.4 71 7.76 7.3 6 7 1023.6 0 17.9 25.3 37.6 98.3 89.8 308.2
16 16:50 12.6 70 7.74 7.4 6 7 1013.1 0 17.8 24.8 36.9 96.8 88.6 303.9
16 16:40 12.8 69 7.73 7.4 4 6 1013.1 0 17.8 24.8 36.8 96.5 88.2 302.7
16 16:30 12.9 70 7.89 7.6 6 9 1023.5 0 18.1 25.4 37.8 99.1 91.0 312.2
16 16:20 13 70 7.94 7.6 4 6 1013.1 0 18.2 25.1 37.5 98.4 90.7 311.4
16 16:10 13.1 69 7.87 7.5 7 7 1013.1 0 18.1 24.9 37.2 97.6 89.7 307.9
16 16:00 13.2 69 7.92 7.6 6 9 1023.4 0 18.2 25.4 37.8 99.0 91.0 312.4
16 15:50 13.3 70 8.09 7.9 6 7 1013.1 0 18.5 25.2 38.0 99.6 92.3 317.1
16 15:40 13.2 69 7.92 7.6 9 9 1013.1 0 18.2 25.0 37.4 98.0 90.2 309.7
16 15:30 13.4 69 8.02 7.8 6 9 1023.5 0 18.4 25.5 38.1 99.8 92.1 316.2
16 15:20 13.4 69 8.02 7.8 7 9 1013.1 0 18.4 25.1 37.7 98.8 91.3 313.5
16 15:10 13.8 69 8.22 8.2 6 6 1013.1 0 18.8 25.3 38.3 100.4 93.4 321.0
16 15:00 13.6 67 7.89 7.6 9 13 1023.6 0 18.1 25.2 37.5 98.2 90.2 309.5
16 14:50 14.2 69 8.43 8.6 7 9 1013.1 0 19.2 25.5 38.9 102.1 95.7 328.9
16 14:40 13.8 68 8.1 8 6 6 1013.1 0 18.5 25.1 37.8 99.1 91.8 315.5
16 14:30 14 68 8.2 8.2 7 11 1023.6 0 18.7 25.6 38.6 101.0 93.7 322.0
16 14:20 14.2 70 8.55 8.8 6 7 1013.1 0 19.5 25.7 39.4 103.4 97.2 334.4
16 14:10 13.8 69 8.22 8.2 9 11 1013.1 0 18.8 25.3 38.3 100.4 93.4 321.0
16 14:00 13.8 69 8.22 8.2 9 13 1023.6 0 18.8 25.7 38.7 101.5 94.2 323.8
16 13:50 14.1 67 8.13 8.2 9 11 1013.1 0 18.6 25.1 37.8 99.1 91.9 315.7
16 13:40 14.2 69 8.43 8.6 7 9 1013.1 0 19.2 25.5 38.9 102.1 95.7 328.9
16 13:30 13.9 68 8.15 8.1 9 13 1023.7 0 18.6 25.5 38.4 100.6 93.2 320.2
16 13:20 14.3 69 8.48 8.7 9 9 1013.1 0 19.3 25.6 39.1 102.5 96.2 330.8
16 13:10 14.3 69 8.48 8.7 11 11 1013.1 0 19.3 25.6 39.1 102.5 96.2 330.8
16 13:00 14 70 8.44 8.6 9 13 1024 0 19.2 26.0 39.5 103.6 96.9 333.2
16 12:50 14.2 69 8.43 8.6 9 11 1013.1 0 19.2 25.5 38.9 102.1 95.7 328.9
16 12:40 13.8 69 8.22 8.2 9 11 1013.1 0 18.8 25.3 38.3 100.4 93.4 321.0
16 12:30 13.9 70 8.39 8.5 11 17 1024.4 0 19.1 25.9 39.4 103.2 96.4 331.4
16 12:20 13.9 70 8.39 8.5 11 15 1013.1 0 19.1 25.5 38.9 102.1 95.5 328.4
16 12:10 13.8 70 8.34 8.4 15 17 1013.1 0 19.0 25.5 38.8 101.7 95.0 326.5
16 12:00 14 71 8.56 8.8 13 17 1024.8 0 19.5 26.2 40.1 105.0 98.6 339.0
16 11:50 13.9 70 8.39 8.5 13 17 1013.1 0 19.1 25.5 38.9 102.1 95.5 328.4
16 11:40 13.8 69 8.22 8.2 11 13 1013.1 0 18.8 25.3 38.3 100.4 93.4 321.0
16 11:30 13.5 70 8.19 8.1 15 19 1025.2 0 18.7 25.8 38.8 101.7 94.3 324.0
16 11:20 13.4 71 8.25 8.2 17 20 1013.1 0 18.9 25.4 38.6 101.2 94.3 324.0
16 11:10 13.7 71 8.41 8.5 15 17 1013.1 0 19.2 25.6 39.1 102.5 96.0 330.1
16 11:00 13.6 71 8.36 8.4 15 20 1025.2 0 19.1 26.0 39.5 103.4 96.4 331.5
16 10:50 13.4 71 8.25 8.2 17 19 1013.1 0 18.9 25.4 38.6 101.2 94.3 324.0
16 10:40 13.4 71 8.25 8.2 17 19 1013.1 0 18.9 25.4 38.6 101.2 94.3 324.0
16 10:30 13.3 71 8.2 8.2 17 24 1025.2 0 18.7 25.8 39.0 102.1 94.7 325.3
16 10:20 13.3 72 8.32 8.3 19 22 1013.1 0 19.0 25.6 38.9 102.1 95.3 327.6
16 10:10 13.3 72 8.32 8.3 17 20 1013.1 0 19.0 25.6 38.9 102.1 95.3 327.6
16 10:00 13.2 72 8.27 8.3 19 26 1025.1 0 18.9 26.0 39.3 102.9 95.7 329.0
16 09:50 13.2 71 8.15 8.2 17 22 1013.1 0 18.7 25.3 38.3 100.4 93.2 320.2

Last Refresh: 17-Jul-2020 02:30:38

Most of the information presented on this site is sourced from the Bureau of Meteorology.  Copyright in all material sourced from the Bureau of Meteorology resides with the Commonwealth of Australia.